sensor_id;sensor_type;location;lat;lon;timestamp;pressure;altitude;pressure_sealevel;temperature
78917;BMP280;68315;48.608;11.436;2024-02-14T00:01:49;97662.00;;;0.69
78917;BMP280;68315;48.608;11.436;2024-02-14T00:04:15;97659.00;;;0.67
78917;BMP280;68315;48.608;11.436;2024-02-14T00:06:40;97668.41;;;0.63
78917;BMP280;68315;48.608;11.436;2024-02-14T00:09:06;97667.38;;;0.60
78917;BMP280;68315;48.608;11.436;2024-02-14T00:11:34;97659.84;;;0.55
78917;BMP280;68315;48.608;11.436;2024-02-14T00:13:59;97667.78;;;0.49
78917;BMP280;68315;48.608;11.436;2024-02-14T00:16:25;97667.91;;;0.46
78917;BMP280;68315;48.608;11.436;2024-02-14T00:18:50;97670.75;;;0.42
78917;BMP280;68315;48.608;11.436;2024-02-14T00:21:16;97676.44;;;0.35
78917;BMP280;68315;48.608;11.436;2024-02-14T00:23:41;97671.31;;;0.28
78917;BMP280;68315;48.608;11.436;2024-02-14T00:26:06;97664.25;;;0.22
78917;BMP280;68315;48.608;11.436;2024-02-14T00:28:31;97665.25;;;0.15
78917;BMP280;68315;48.608;11.436;2024-02-14T00:30:58;97669.31;;;0.11
78917;BMP280;68315;48.608;11.436;2024-02-14T00:33:23;97672.44;;;0.09
78917;BMP280;68315;48.608;11.436;2024-02-14T00:35:48;97679.34;;;0.10
78917;BMP280;68315;48.608;11.436;2024-02-14T00:38:13;97689.84;;;0.08
78917;BMP280;68315;48.608;11.436;2024-02-14T00:40:39;97681.28;;;0.10
78917;BMP280;68315;48.608;11.436;2024-02-14T00:43:04;97674.72;;;0.11
78917;BMP280;68315;48.608;11.436;2024-02-14T00:45:29;97684.63;;;0.14
78917;BMP280;68315;48.608;11.436;2024-02-14T00:47:54;97678.00;;;0.15
78917;BMP280;68315;48.608;11.436;2024-02-14T00:50:20;97681.47;;;0.15
78917;BMP280;68315;48.608;11.436;2024-02-14T00:52:45;97680.28;;;0.16
78917;BMP280;68315;48.608;11.436;2024-02-14T00:55:10;97676.38;;;0.17
78917;BMP280;68315;48.608;11.436;2024-02-14T00:57:36;97677.47;;;0.20
78917;BMP280;68315;48.608;11.436;2024-02-14T01:00:01;97680.47;;;0.22
78917;BMP280;68315;48.608;11.436;2024-02-14T01:02:27;97680.34;;;0.25
78917;BMP280;68315;48.608;11.436;2024-02-14T01:04:52;97693.25;;;0.30
78917;BMP280;68315;48.608;11.436;2024-02-14T01:07:18;97686.19;;;0.33
78917;BMP280;68315;48.608;11.436;2024-02-14T01:09:43;97692.94;;;0.37
78917;BMP280;68315;48.608;11.436;2024-02-14T01:12:08;97685.91;;;0.40
78917;BMP280;68315;48.608;11.436;2024-02-14T01:14:33;97690.00;;;0.44
78917;BMP280;68315;48.608;11.436;2024-02-14T01:16:59;97687.91;;;0.48
78917;BMP280;68315;48.608;11.436;2024-02-14T01:19:24;97684.31;;;0.51
78917;BMP280;68315;48.608;11.436;2024-02-14T01:21:53;97689.88;;;0.57
78917;BMP280;68315;48.608;11.436;2024-02-14T01:24:18;97687.81;;;0.61
78917;BMP280;68315;48.608;11.436;2024-02-14T01:26:44;97688.41;;;0.65
78917;BMP280;68315;48.608;11.436;2024-02-14T01:29:09;97683.91;;;0.71
78917;BMP280;68315;48.608;11.436;2024-02-14T01:31:34;97691.16;;;0.74
78917;BMP280;68315;48.608;11.436;2024-02-14T01:33:59;97691.78;;;0.78
78917;BMP280;68315;48.608;11.436;2024-02-14T01:36:27;97688.59;;;0.80
78917;BMP280;68315;48.608;11.436;2024-02-14T01:38:53;97681.88;;;0.84
78917;BMP280;68315;48.608;11.436;2024-02-14T01:41:18;97674.06;;;0.86
78917;BMP280;68315;48.608;11.436;2024-02-14T01:43:44;97678.09;;;0.91
78917;BMP280;68315;48.608;11.436;2024-02-14T01:46:10;97681.88;;;0.93
78917;BMP280;68315;48.608;11.436;2024-02-14T01:48:36;97681.72;;;0.97
78917;BMP280;68315;48.608;11.436;2024-02-14T01:51:02;97677.84;;;0.98
78917;BMP280;68315;48.608;11.436;2024-02-14T01:53:30;97684.31;;;1.00
78917;BMP280;68315;48.608;11.436;2024-02-14T01:55:56;97695.00;;;1.04
78917;BMP280;68315;48.608;11.436;2024-02-14T01:58:22;97687.16;;;1.06
78917;BMP280;68315;48.608;11.436;2024-02-14T02:00:48;97685.97;;;1.07
78917;BMP280;68315;48.608;11.436;2024-02-14T02:03:14;97685.22;;;1.06
78917;BMP280;68315;48.608;11.436;2024-02-14T02:05:39;97687.94;;;1.06
78917;BMP280;68315;48.608;11.436;2024-02-14T02:08:07;97686.28;;;1.09
78917;BMP280;68315;48.608;11.436;2024-02-14T02:10:33;97681.16;;;1.11
78917;BMP280;68315;48.608;11.436;2024-02-14T02:12:58;97684.91;;;1.13
78917;BMP280;68315;48.608;11.436;2024-02-14T02:15:25;97679.38;;;1.17
78917;BMP280;68315;48.608;11.436;2024-02-14T02:17:51;97677.72;;;1.19
78917;BMP280;68315;48.608;11.436;2024-02-14T02:20:18;97682.22;;;1.23
78917;BMP280;68315;48.608;11.436;2024-02-14T02:22:47;97675.16;;;1.25
78917;BMP280;68315;48.608;11.436;2024-02-14T02:25:15;97671.84;;;1.30
78917;BMP280;68315;48.608;11.436;2024-02-14T02:27:41;97667.03;;;1.34
78917;BMP280;68315;48.608;11.436;2024-02-14T02:30:06;97673.06;;;1.38
78917;BMP280;68315;48.608;11.436;2024-02-14T02:32:33;97673.63;;;1.42
78917;BMP280;68315;48.608;11.436;2024-02-14T02:34:58;97675.91;;;1.44
78917;BMP280;68315;48.608;11.436;2024-02-14T02:37:25;97679.97;;;1.48
78917;BMP280;68315;48.608;11.436;2024-02-14T02:39:50;97672.13;;;1.50
78917;BMP280;68315;48.608;11.436;2024-02-14T02:42:16;97672.44;;;1.52
78917;BMP280;68315;48.608;11.436;2024-02-14T02:44:42;97687.03;;;1.55
78917;BMP280;68315;48.608;11.436;2024-02-14T02:47:07;97675.75;;;1.56
78917;BMP280;68315;48.608;11.436;2024-02-14T02:49:33;97678.75;;;1.58
78917;BMP280;68315;48.608;11.436;2024-02-14T02:51:58;97674.53;;;1.57
78917;BMP280;68315;48.608;11.436;2024-02-14T02:54:23;97683.56;;;1.54
78917;BMP280;68315;48.608;11.436;2024-02-14T02:56:49;97680.56;;;1.52
78917;BMP280;68315;48.608;11.436;2024-02-14T02:59:14;97679.97;;;1.48
78917;BMP280;68315;48.608;11.436;2024-02-14T03:01:42;97682.50;;;1.43
78917;BMP280;68315;48.608;11.436;2024-02-14T03:04:07;97681.91;;;1.39
78917;BMP280;68315;48.608;11.436;2024-02-14T03:06:33;97677.84;;;1.34
78917;BMP280;68315;48.608;11.436;2024-02-14T03:08:58;97676.81;;;1.32
78917;BMP280;68315;48.608;11.436;2024-02-14T03:11:24;97681.19;;;1.29
78917;BMP280;68315;48.608;11.436;2024-02-14T03:13:51;97683.56;;;1.27
78917;BMP280;68315;48.608;11.436;2024-02-14T03:16:17;97679.81;;;1.25
78917;BMP280;68315;48.608;11.436;2024-02-14T03:18:43;97684.16;;;1.22
78917;BMP280;68315;48.608;11.436;2024-02-14T03:21:08;97680.13;;;1.17
78917;BMP280;68315;48.608;11.436;2024-02-14T03:23:33;97681.31;;;1.16
78917;BMP280;68315;48.608;11.436;2024-02-14T03:25:58;97686.88;;;1.13
78917;BMP280;68315;48.608;11.436;2024-02-14T03:28:24;97685.09;;;1.10
78917;BMP280;68315;48.608;11.436;2024-02-14T03:30:51;97682.81;;;1.08
78917;BMP280;68315;48.608;11.436;2024-02-14T03:33:17;97677.41;;;1.08
78917;BMP280;68315;48.608;11.436;2024-02-14T03:35:42;97675.16;;;1.07
78917;BMP280;68315;48.608;11.436;2024-02-14T03:38:08;97675.28;;;1.03
78917;BMP280;68315;48.608;11.436;2024-02-14T03:40:34;97678.00;;;1.03
78917;BMP280;68315;48.608;11.436;2024-02-14T03:42:59;97683.41;;;1.03
78917;BMP280;68315;48.608;11.436;2024-02-14T03:45:24;97684.16;;;1.04
78917;BMP280;68315;48.608;11.436;2024-02-14T03:47:50;97682.94;;;1.05
78917;BMP280;68315;48.608;11.436;2024-02-14T03:50:15;97689.25;;;1.02
78917;BMP280;68315;48.608;11.436;2024-02-14T03:52:41;97682.34;;;1.01
78917;BMP280;68315;48.608;11.436;2024-02-14T03:55:08;97677.97;;;0.94
78917;BMP280;68315;48.608;11.436;2024-02-14T03:57:34;97675.41;;;0.91
78917;BMP280;68315;48.608;11.436;2024-02-14T04:00:03;97679.00;;;0.88
78917;BMP280;68315;48.608;11.436;2024-02-14T04:02:32;97670.28;;;0.84
78917;BMP280;68315;48.608;11.436;2024-02-14T04:04:57;97682.31;;;0.83
78917;BMP280;68315;48.608;11.436;2024-02-14T04:07:23;97671.19;;;0.81
78917;BMP280;68315;48.608;11.436;2024-02-14T04:09:49;97666.06;;;0.83
78917;BMP280;68315;48.608;11.436;2024-02-14T04:12:14;97674.47;;;0.85
78917;BMP280;68315;48.608;11.436;2024-02-14T04:14:39;97673.28;;;0.86
78917;BMP280;68315;48.608;11.436;2024-02-14T04:17:06;97680.09;;;0.90
78917;BMP280;68315;48.608;11.436;2024-02-14T04:19:36;97677.09;;;0.97
78917;BMP280;68315;48.608;11.436;2024-02-14T04:22:01;97682.22;;;1.04
78917;BMP280;68315;48.608;11.436;2024-02-14T04:24:26;97682.50;;;1.06
78917;BMP280;68315;48.608;11.436;2024-02-14T04:26:53;97681.16;;;1.11
78917;BMP280;68315;48.608;11.436;2024-02-14T04:29:20;97684.16;;;1.13
78917;BMP280;68315;48.608;11.436;2024-02-14T04:31:45;97685.97;;;1.16
78917;BMP280;68315;48.608;11.436;2024-02-14T04:34:11;97688.66;;;1.16
78917;BMP280;68315;48.608;11.436;2024-02-14T04:36:38;97689.44;;;1.16
78917;BMP280;68315;48.608;11.436;2024-02-14T04:39:05;97694.84;;;1.16
78917;BMP280;68315;48.608;11.436;2024-02-14T04:41:30;97691.38;;;1.16
78917;BMP280;68315;48.608;11.436;2024-02-14T04:43:55;97689.00;;;1.18
78917;BMP280;68315;48.608;11.436;2024-02-14T04:46:21;97698.03;;;1.24
78917;BMP280;68315;48.608;11.436;2024-02-14T04:48:47;97692.44;;;1.28
78917;BMP280;68315;48.608;11.436;2024-02-14T04:51:13;97690.78;;;1.30
78917;BMP280;68315;48.608;11.436;2024-02-14T04:53:38;97699.97;;;1.33
78917;BMP280;68315;48.608;11.436;2024-02-14T04:56:04;97696.34;;;1.36
78917;BMP280;68315;48.608;11.436;2024-02-14T04:58:29;97697.72;;;1.40
78917;BMP280;68315;48.608;11.436;2024-02-14T05:00:54;97704.03;;;1.46
78917;BMP280;68315;48.608;11.436;2024-02-14T05:03:22;97693.34;;;1.52
78917;BMP280;68315;48.608;11.436;2024-02-14T05:05:49;97680.41;;;1.56
78917;BMP280;68315;48.608;11.436;2024-02-14T05:08:14;97684.75;;;1.62
78917;BMP280;68315;48.608;11.436;2024-02-14T05:10:40;97696.50;;;1.68
78917;BMP280;68315;48.608;11.436;2024-02-14T05:13:06;97685.66;;;1.77
78917;BMP280;68315;48.608;11.436;2024-02-14T05:15:31;97685.16;;;1.88
78917;BMP280;68315;48.608;11.436;2024-02-14T05:17:56;97680.19;;;1.96
78917;BMP280;68315;48.608;11.436;2024-02-14T05:20:22;97681.06;;;2.02
78917;BMP280;68315;48.608;11.436;2024-02-14T05:22:47;97677.31;;;2.08
78917;BMP280;68315;48.608;11.436;2024-02-14T05:25:12;97677.88;;;2.12
78917;BMP280;68315;48.608;11.436;2024-02-14T05:27:38;97675.47;;;2.14
78917;BMP280;68315;48.608;11.436;2024-02-14T05:30:04;97671.25;;;2.13
78917;BMP280;68315;48.608;11.436;2024-02-14T05:32:34;97669.75;;;2.12
78917;BMP280;68315;48.608;11.436;2024-02-14T05:35:00;97668.09;;;2.15
78917;BMP280;68315;48.608;11.436;2024-02-14T05:37:25;97660.25;;;2.17
78917;BMP280;68315;48.608;11.436;2024-02-14T05:39:55;97677.41;;;2.23
78917;BMP280;68315;48.608;11.436;2024-02-14T05:42:20;97688.19;;;2.32
78917;BMP280;68315;48.608;11.436;2024-02-14T05:44:46;97691.78;;;2.38
78917;BMP280;68315;48.608;11.436;2024-02-14T05:47:11;97692.66;;;2.44
78917;BMP280;68315;48.608;11.436;2024-02-14T05:49:40;97697.94;;;2.48
78917;BMP280;68315;48.608;11.436;2024-02-14T05:52:08;97706.06;;;2.48
78917;BMP280;68315;48.608;11.436;2024-02-14T05:54:34;97707.75;;;2.45
78917;BMP280;68315;48.608;11.436;2024-02-14T05:57:00;97712.13;;;2.42
78917;BMP280;68315;48.608;11.436;2024-02-14T05:59:27;97710.00;;;2.37
78917;BMP280;68315;48.608;11.436;2024-02-14T06:01:52;97705.06;;;2.36
78917;BMP280;68315;48.608;11.436;2024-02-14T06:04:18;97703.09;;;2.36
78917;BMP280;68315;48.608;11.436;2024-02-14T06:06:43;97704.16;;;2.39
78917;BMP280;68315;48.608;11.436;2024-02-14T06:09:08;97712.56;;;2.41
78917;BMP280;68315;48.608;11.436;2024-02-14T06:11:37;97713.75;;;2.40
78917;BMP280;68315;48.608;11.436;2024-02-14T06:14:06;97705.34;;;2.38
78917;BMP280;68315;48.608;11.436;2024-02-14T06:16:32;97708.22;;;2.34
78917;BMP280;68315;48.608;11.436;2024-02-14T06:18:58;97712.91;;;2.34
78917;BMP280;68315;48.608;11.436;2024-02-14T06:21:23;97716.53;;;2.31
78917;BMP280;68315;48.608;11.436;2024-02-14T06:23:48;97720.19;;;2.28
78917;BMP280;68315;48.608;11.436;2024-02-14T06:26:13;97721.38;;;2.27
78917;BMP280;68315;48.608;11.436;2024-02-14T06:28:39;97717.16;;;2.26
78917;BMP280;68315;48.608;11.436;2024-02-14T06:31:04;97721.84;;;2.25
78917;BMP280;68315;48.608;11.436;2024-02-14T06:33:30;97723.31;;;2.26
78917;BMP280;68315;48.608;11.436;2024-02-14T06:35:55;97720.19;;;2.28
78917;BMP280;68315;48.608;11.436;2024-02-14T06:38:20;97725.59;;;2.28
78917;BMP280;68315;48.608;11.436;2024-02-14T06:40:45;97718.66;;;2.27
78917;BMP280;68315;48.608;11.436;2024-02-14T06:43:11;97713.22;;;2.27
78917;BMP280;68315;48.608;11.436;2024-02-14T06:45:37;97720.44;;;2.30
78917;BMP280;68315;48.608;11.436;2024-02-14T06:48:02;97713.34;;;2.32
78917;BMP280;68315;48.608;11.436;2024-02-14T06:50:28;97719.38;;;2.36
78917;BMP280;68315;48.608;11.436;2024-02-14T06:52:54;97724.63;;;2.40
78917;BMP280;68315;48.608;11.436;2024-02-14T06:55:19;97736.81;;;2.45
78917;BMP280;68315;48.608;11.436;2024-02-14T06:57:44;97742.09;;;2.48
78917;BMP280;68315;48.608;11.436;2024-02-14T07:00:10;97745.38;;;2.52
78917;BMP280;68315;48.608;11.436;2024-02-14T07:02:35;97758.31;;;2.57
78917;BMP280;68315;48.608;11.436;2024-02-14T07:05:01;97757.59;;;2.57
78917;BMP280;68315;48.608;11.436;2024-02-14T07:07:27;97764.97;;;2.56
78917;BMP280;68315;48.608;11.436;2024-02-14T07:09:52;97760.75;;;2.55
78917;BMP280;68315;48.608;11.436;2024-02-14T07:12:18;97761.63;;;2.61
78917;BMP280;68315;48.608;11.436;2024-02-14T07:14:44;97758.25;;;2.66
78917;BMP280;68315;48.608;11.436;2024-02-14T07:17:09;97762.34;;;2.71
78917;BMP280;68315;48.608;11.436;2024-02-14T07:19:34;97767.13;;;2.76
78917;BMP280;68315;48.608;11.436;2024-02-14T07:22:00;97764.22;;;2.79
78917;BMP280;68315;48.608;11.436;2024-02-14T07:24:25;97760.59;;;2.82
78917;BMP280;68315;48.608;11.436;2024-02-14T07:26:50;97764.69;;;2.87
78917;BMP280;68315;48.608;11.436;2024-02-14T07:29:15;97767.50;;;2.92
78917;BMP280;68315;48.608;11.436;2024-02-14T07:31:40;97770.16;;;3.01
78917;BMP280;68315;48.608;11.436;2024-02-14T07:34:06;97772.81;;;3.11
78917;BMP280;68315;48.608;11.436;2024-02-14T07:36:32;97772.03;;;3.19
78917;BMP280;68315;48.608;11.436;2024-02-14T07:38:57;97770.47;;;3.27
78917;BMP280;68315;48.608;11.436;2024-02-14T07:41:23;97761.50;;;3.36
78917;BMP280;68315;48.608;11.436;2024-02-14T07:43:48;97774.06;;;3.48
78917;BMP280;68315;48.608;11.436;2024-02-14T07:46:18;97766.47;;;3.61
78917;BMP280;68315;48.608;11.436;2024-02-14T07:48:43;97763.94;;;3.72
78917;BMP280;68315;48.608;11.436;2024-02-14T07:51:09;97777.25;;;3.85
78917;BMP280;68315;48.608;11.436;2024-02-14T07:53:34;97769.28;;;3.96
78917;BMP280;68315;48.608;11.436;2024-02-14T07:55:59;97771.19;;;4.04
78917;BMP280;68315;48.608;11.436;2024-02-14T07:58:24;97773.06;;;4.13
78917;BMP280;68315;48.608;11.436;2024-02-14T08:00:50;97765.56;;;4.22
78917;BMP280;68315;48.608;11.436;2024-02-14T08:03:15;97765.75;;;4.33
78917;BMP280;68315;48.608;11.436;2024-02-14T08:05:40;97765.91;;;4.45
78917;BMP280;68315;48.608;11.436;2024-02-14T08:08:07;97769.06;;;4.58
78917;BMP280;68315;48.608;11.436;2024-02-14T08:10:33;97760.31;;;4.68
78917;BMP280;68315;48.608;11.436;2024-02-14T08:12:58;97765.94;;;4.79
78917;BMP280;68315;48.608;11.436;2024-02-14T08:15:24;97768.28;;;4.86
78917;BMP280;68315;48.608;11.436;2024-02-14T08:17:49;97767.28;;;4.89
78917;BMP280;68315;48.608;11.436;2024-02-14T08:20:14;97773.31;;;4.93
78917;BMP280;68315;48.608;11.436;2024-02-14T08:22:39;97761.94;;;4.95
78917;BMP280;68315;48.608;11.436;2024-02-14T08:25:05;97762.50;;;4.99
78917;BMP280;68315;48.608;11.436;2024-02-14T08:27:30;97763.78;;;5.04
78917;BMP280;68315;48.608;11.436;2024-02-14T08:29:56;97779.50;;;5.14
78917;BMP280;68315;48.608;11.436;2024-02-14T08:32:22;97777.91;;;5.22
78917;BMP280;68315;48.608;11.436;2024-02-14T08:34:47;97785.16;;;5.31
78917;BMP280;68315;48.608;11.436;2024-02-14T08:37:12;97774.88;;;5.40
78917;BMP280;68315;48.608;11.436;2024-02-14T08:39:38;97786.47;;;5.55
78917;BMP280;68315;48.608;11.436;2024-02-14T08:42:03;97791.59;;;5.74
78917;BMP280;68315;48.608;11.436;2024-02-14T08:44:35;97792.53;;;5.91
78917;BMP280;68315;48.608;11.436;2024-02-14T08:47:01;97790.75;;;6.13
78917;BMP280;68315;48.608;11.436;2024-02-14T08:49:26;97792.91;;;6.35
78917;BMP280;68315;48.608;11.436;2024-02-14T08:51:51;97796.84;;;6.60
78917;BMP280;68315;48.608;11.436;2024-02-14T08:54:16;97791.38;;;6.96
78917;BMP280;68315;48.608;11.436;2024-02-14T08:56:42;97791.47;;;7.19
78917;BMP280;68315;48.608;11.436;2024-02-14T08:59:07;97784.28;;;7.21
78917;BMP280;68315;48.608;11.436;2024-02-14T09:01:32;97786.03;;;7.24
78917;BMP280;68315;48.608;11.436;2024-02-14T09:03:58;97792.72;;;7.23
78917;BMP280;68315;48.608;11.436;2024-02-14T09:06:24;97776.56;;;7.25
78917;BMP280;68315;48.608;11.436;2024-02-14T09:08:51;97789.78;;;7.27
78917;BMP280;68315;48.608;11.436;2024-02-14T09:11:16;97786.50;;;7.23
78917;BMP280;68315;48.608;11.436;2024-02-14T09:13:42;97785.50;;;7.20
78917;BMP280;68315;48.608;11.436;2024-02-14T09:16:10;97786.00;;;7.19
78917;BMP280;68315;48.608;11.436;2024-02-14T09:18:36;97777.50;;;7.17
78917;BMP280;68315;48.608;11.436;2024-02-14T09:21:02;97779.28;;;7.20
78917;BMP280;68315;48.608;11.436;2024-02-14T09:23:30;97778.59;;;7.25
78917;BMP280;68315;48.608;11.436;2024-02-14T09:25:56;97782.03;;;7.31
78917;BMP280;68315;48.608;11.436;2024-02-14T09:28:22;97781.59;;;7.38
78917;BMP280;68315;48.608;11.436;2024-02-14T09:30:47;97781.63;;;7.49
78917;BMP280;68315;48.608;11.436;2024-02-14T09:33:13;97771.72;;;7.57
78917;BMP280;68315;48.608;11.436;2024-02-14T09:35:38;97775.72;;;7.67
78917;BMP280;68315;48.608;11.436;2024-02-14T09:38:09;97774.47;;;7.73
78917;BMP280;68315;48.608;11.436;2024-02-14T09:40:34;97772.75;;;7.81
78917;BMP280;68315;48.608;11.436;2024-02-14T09:43:02;97773.25;;;7.86
78917;BMP280;68315;48.608;11.436;2024-02-14T09:45:30;97764.31;;;7.91
78917;BMP280;68315;48.608;11.436;2024-02-14T09:47:57;97767.53;;;7.95
78917;BMP280;68315;48.608;11.436;2024-02-14T09:50:23;97759.56;;;7.97
78917;BMP280;68315;48.608;11.436;2024-02-14T09:52:49;97755.84;;;8.00
78917;BMP280;68315;48.608;11.436;2024-02-14T09:55:15;97750.38;;;8.05
78917;BMP280;68315;48.608;11.436;2024-02-14T09:57:42;97752.13;;;8.08
78917;BMP280;68315;48.608;11.436;2024-02-14T10:00:10;97755.09;;;8.16
78917;BMP280;68315;48.608;11.436;2024-02-14T10:02:35;97758.34;;;8.20
78917;BMP280;68315;48.608;11.436;2024-02-14T10:05:01;97751.13;;;8.33
78917;BMP280;68315;48.608;11.436;2024-02-14T10:07:26;97750.56;;;8.63
78917;BMP280;68315;48.608;11.436;2024-02-14T10:09:52;97759.88;;;9.06
78917;BMP280;68315;48.608;11.436;2024-02-14T10:12:19;97749.22;;;9.43
78917;BMP280;68315;48.608;11.436;2024-02-14T10:14:44;97752.84;;;9.62
78917;BMP280;68315;48.608;11.436;2024-02-14T10:17:17;97757.41;;;9.89
78917;BMP280;68315;48.608;11.436;2024-02-14T10:19:43;97742.13;;;10.24
78917;BMP280;68315;48.608;11.436;2024-02-14T10:22:08;97753.06;;;10.53
78917;BMP280;68315;48.608;11.436;2024-02-14T10:24:33;97757.00;;;10.82
78917;BMP280;68315;48.608;11.436;2024-02-14T10:26:59;97760.13;;;10.91
78917;BMP280;68315;48.608;11.436;2024-02-14T10:29:27;97757.31;;;10.97
78917;BMP280;68315;48.608;11.436;2024-02-14T10:31:53;97761.97;;;11.02
78917;BMP280;68315;48.608;11.436;2024-02-14T10:34:18;97763.16;;;10.88
78917;BMP280;68315;48.608;11.436;2024-02-14T10:36:45;97743.63;;;10.73
78917;BMP280;68315;48.608;11.436;2024-02-14T10:39:11;97734.69;;;10.67
78917;BMP280;68315;48.608;11.436;2024-02-14T10:41:36;97751.84;;;10.73
78917;BMP280;68315;48.608;11.436;2024-02-14T10:44:05;97746.25;;;10.84
78917;BMP280;68315;48.608;11.436;2024-02-14T10:46:32;97750.16;;;10.88
78917;BMP280;68315;48.608;11.436;2024-02-14T10:49:02;97752.59;;;10.92
78917;BMP280;68315;48.608;11.436;2024-02-14T10:51:30;97747.59;;;11.15
78917;BMP280;68315;48.608;11.436;2024-02-14T10:53:57;97757.19;;;11.27
78917;BMP280;68315;48.608;11.436;2024-02-14T10:56:28;97744.19;;;11.27
78917;BMP280;68315;48.608;11.436;2024-02-14T10:58:56;97757.56;;;11.18
78917;BMP280;68315;48.608;11.436;2024-02-14T11:01:23;97755.63;;;11.13
78917;BMP280;68315;48.608;11.436;2024-02-14T11:03:50;97755.47;;;11.05
78917;BMP280;68315;48.608;11.436;2024-02-14T11:06:16;97750.84;;;10.94
78917;BMP280;68315;48.608;11.436;2024-02-14T11:08:42;97744.59;;;10.94
78917;BMP280;68315;48.608;11.436;2024-02-14T11:11:07;97753.50;;;11.00
78917;BMP280;68315;48.608;11.436;2024-02-14T11:13:35;97741.72;;;11.05
78917;BMP280;68315;48.608;11.436;2024-02-14T11:16:01;97747.47;;;11.07
78917;BMP280;68315;48.608;11.436;2024-02-14T11:18:28;97748.97;;;11.03
78917;BMP280;68315;48.608;11.436;2024-02-14T11:20:58;97742.09;;;10.96
78917;BMP280;68315;48.608;11.436;2024-02-14T11:23:24;97741.34;;;10.96
78917;BMP280;68315;48.608;11.436;2024-02-14T11:25:49;97737.16;;;10.89
78917;BMP280;68315;48.608;11.436;2024-02-14T11:28:17;97735.66;;;10.88
78917;BMP280;68315;48.608;11.436;2024-02-14T11:30:45;97733.75;;;10.83
78917;BMP280;68315;48.608;11.436;2024-02-14T11:33:13;97729.44;;;10.87
78917;BMP280;68315;48.608;11.436;2024-02-14T11:35:43;97720.09;;;10.96
78917;BMP280;68315;48.608;11.436;2024-02-14T11:38:09;97728.97;;;11.02
78917;BMP280;68315;48.608;11.436;2024-02-14T11:40:36;97731.63;;;11.13
78917;BMP280;68315;48.608;11.436;2024-02-14T11:43:03;97728.19;;;11.26
78917;BMP280;68315;48.608;11.436;2024-02-14T11:45:29;97725.28;;;11.37
78917;BMP280;68315;48.608;11.436;2024-02-14T11:47:54;97722.22;;;11.40
78917;BMP280;68315;48.608;11.436;2024-02-14T11:50:20;97721.94;;;11.44
78917;BMP280;68315;48.608;11.436;2024-02-14T11:52:46;97726.50;;;11.54
78917;BMP280;68315;48.608;11.436;2024-02-14T11:55:11;97720.00;;;11.70
78917;BMP280;68315;48.608;11.436;2024-02-14T11:57:40;97717.13;;;11.95
78917;BMP280;68315;48.608;11.436;2024-02-14T12:00:06;97726.13;;;12.08
78917;BMP280;68315;48.608;11.436;2024-02-14T12:02:32;97719.66;;;12.19
78917;BMP280;68315;48.608;11.436;2024-02-14T12:04:57;97726.88;;;12.35
78917;BMP280;68315;48.608;11.436;2024-02-14T12:07:24;97713.75;;;12.41
78917;BMP280;68315;48.608;11.436;2024-02-14T12:09:49;97709.84;;;12.36
78917;BMP280;68315;48.608;11.436;2024-02-14T12:12:15;97717.00;;;12.26
78917;BMP280;68315;48.608;11.436;2024-02-14T12:14:43;97726.53;;;12.12
78917;BMP280;68315;48.608;11.436;2024-02-14T12:17:10;97722.41;;;12.06
78917;BMP280;68315;48.608;11.436;2024-02-14T12:19:35;97714.25;;;12.13
78917;BMP280;68315;48.608;11.436;2024-02-14T12:22:09;97715.00;;;12.27
78917;BMP280;68315;48.608;11.436;2024-02-14T12:24:37;97696.56;;;12.35
78917;BMP280;68315;48.608;11.436;2024-02-14T12:27:04;97705.06;;;12.37
78917;BMP280;68315;48.608;11.436;2024-02-14T12:29:29;97703.13;;;12.32
78917;BMP280;68315;48.608;11.436;2024-02-14T12:32:06;97706.22;;;12.41
78917;BMP280;68315;48.608;11.436;2024-02-14T12:34:32;97702.31;;;12.37
78917;BMP280;68315;48.608;11.436;2024-02-14T12:36:58;97696.44;;;12.40
78917;BMP280;68315;48.608;11.436;2024-02-14T12:39:24;97692.84;;;12.45
78917;BMP280;68315;48.608;11.436;2024-02-14T12:41:51;97698.06;;;12.49
78917;BMP280;68315;48.608;11.436;2024-02-14T12:44:17;97690.63;;;12.57
78917;BMP280;68315;48.608;11.436;2024-02-14T12:46:42;97693.69;;;12.53
78917;BMP280;68315;48.608;11.436;2024-02-14T12:49:07;97687.34;;;12.45
78917;BMP280;68315;48.608;11.436;2024-02-14T12:51:34;97691.69;;;12.41
78917;BMP280;68315;48.608;11.436;2024-02-14T12:54:03;97699.22;;;12.53
78917;BMP280;68315;48.608;11.436;2024-02-14T12:56:28;97700.38;;;12.58
78917;BMP280;68315;48.608;11.436;2024-02-14T12:58:55;97698.56;;;12.60
78917;BMP280;68315;48.608;11.436;2024-02-14T13:01:20;97685.84;;;12.71
78917;BMP280;68315;48.608;11.436;2024-02-14T13:03:45;97687.75;;;12.76
78917;BMP280;68315;48.608;11.436;2024-02-14T13:06:11;97689.94;;;12.77
78917;BMP280;68315;48.608;11.436;2024-02-14T13:08:36;97685.81;;;12.84
78917;BMP280;68315;48.608;11.436;2024-02-14T13:11:03;97682.72;;;12.87
78917;BMP280;68315;48.608;11.436;2024-02-14T13:13:29;97676.88;;;12.91
78917;BMP280;68315;48.608;11.436;2024-02-14T13:15:55;97681.00;;;12.97
78917;BMP280;68315;48.608;11.436;2024-02-14T13:18:20;97681.41;;;13.01
78917;BMP280;68315;48.608;11.436;2024-02-14T13:20:45;97677.97;;;13.08
78917;BMP280;68315;48.608;11.436;2024-02-14T13:23:10;97687.88;;;13.24
78917;BMP280;68315;48.608;11.436;2024-02-14T13:25:36;97692.19;;;13.33
78917;BMP280;68315;48.608;11.436;2024-02-14T13:28:03;97696.25;;;13.52
78917;BMP280;68315;48.608;11.436;2024-02-14T13:30:29;97692.09;;;13.87
78917;BMP280;68315;48.608;11.436;2024-02-14T13:32:55;97677.19;;;14.11
78917;BMP280;68315;48.608;11.436;2024-02-14T13:35:20;97690.41;;;14.33
78917;BMP280;68315;48.608;11.436;2024-02-14T13:37:46;97690.59;;;14.42
78917;BMP280;68315;48.608;11.436;2024-02-14T13:40:11;97676.88;;;14.58
78917;BMP280;68315;48.608;11.436;2024-02-14T13:42:37;97675.63;;;14.74
78917;BMP280;68315;48.608;11.436;2024-02-14T13:45:06;97676.75;;;14.78
78917;BMP280;68315;48.608;11.436;2024-02-14T13:47:35;97680.47;;;14.88
78917;BMP280;68315;48.608;11.436;2024-02-14T13:50:00;97665.34;;;14.89
78917;BMP280;68315;48.608;11.436;2024-02-14T13:52:26;97665.00;;;14.93
78917;BMP280;68315;48.608;11.436;2024-02-14T13:54:51;97676.78;;;14.86
78917;BMP280;68315;48.608;11.436;2024-02-14T13:57:16;97677.09;;;14.67
78917;BMP280;68315;48.608;11.436;2024-02-14T13:59:42;97667.59;;;14.48